sensor_id;sensor_type;location;lat;lon;timestamp;pressure;altitude;pressure_sealevel;temperature;humidity
29733;BME280;16643;43.158;25.302;2023-02-03T00:00:08;98220.66;;;3.07;85.65
29733;BME280;16643;43.158;25.302;2023-02-03T00:02:34;98221.50;;;3.06;85.79
29733;BME280;16643;43.158;25.302;2023-02-03T00:04:59;98225.81;;;3.09;86.03
29733;BME280;16643;43.158;25.302;2023-02-03T00:07:25;98228.38;;;3.10;86.12
29733;BME280;16643;43.158;25.302;2023-02-03T00:09:50;98229.25;;;3.12;85.72
29733;BME280;16643;43.158;25.302;2023-02-03T00:12:16;98234.38;;;3.17;85.37
29733;BME280;16643;43.158;25.302;2023-02-03T00:14:41;98222.41;;;3.20;85.21
29733;BME280;16643;43.158;25.302;2023-02-03T00:17:06;98230.97;;;3.15;85.90
29733;BME280;16643;43.158;25.302;2023-02-03T00:19:32;98223.22;;;3.16;86.60
29733;BME280;16643;43.158;25.302;2023-02-03T00:21:57;98218.13;;;3.21;85.95
29733;BME280;16643;43.158;25.302;2023-02-03T00:24:23;98224.09;;;3.21;86.25
29733;BME280;16643;43.158;25.302;2023-02-03T00:26:48;98221.53;;;3.23;86.65
29733;BME280;16643;43.158;25.302;2023-02-03T00:29:14;98220.69;;;3.19;86.80
29733;BME280;16643;43.158;25.302;2023-02-03T00:31:39;98225.81;;;3.19;86.56
29733;BME280;16643;43.158;25.302;2023-02-03T00:34:05;98222.41;;;3.20;87.00
29733;BME280;16643;43.158;25.302;2023-02-03T00:36:30;98231.78;;;3.17;86.58
29733;BME280;16643;43.158;25.302;2023-02-03T00:38:56;98220.66;;;3.16;86.93
29733;BME280;16643;43.158;25.302;2023-02-03T00:41:21;98233.53;;;3.15;86.70
29733;BME280;16643;43.158;25.302;2023-02-03T00:43:47;98251.47;;;3.18;87.10
29733;BME280;16643;43.158;25.302;2023-02-03T00:46:12;98239.53;;;3.15;87.13
29733;BME280;16643;43.158;25.302;2023-02-03T00:48:38;98252.34;;;3.09;87.81
29733;BME280;16643;43.158;25.302;2023-02-03T00:51:04;98248.91;;;3.10;88.03
29733;BME280;16643;43.158;25.302;2023-02-03T00:53:29;98252.34;;;3.14;87.49
29733;BME280;16643;43.158;25.302;2023-02-03T00:55:55;98254.91;;;3.17;87.78
29733;BME280;16643;43.158;25.302;2023-02-03T00:58:20;98261.75;;;3.18;87.02
29733;BME280;16643;43.158;25.302;2023-02-03T01:00:45;98258.34;;;3.16;87.79
29733;BME280;16643;43.158;25.302;2023-02-03T01:03:11;98250.63;;;3.19;86.96
29733;BME280;16643;43.158;25.302;2023-02-03T01:05:36;98268.63;;;3.22;86.35
29733;BME280;16643;43.158;25.302;2023-02-03T01:08:02;98262.66;;;3.26;86.58
29733;BME280;16643;43.158;25.302;2023-02-03T01:10:28;98254.94;;;3.24;86.78
29733;BME280;16643;43.158;25.302;2023-02-03T01:12:53;98254.91;;;3.27;86.98
29733;BME280;16643;43.158;25.302;2023-02-03T01:15:18;98249.81;;;3.26;86.90
29733;BME280;16643;43.158;25.302;2023-02-03T01:17:44;98253.22;;;3.25;87.02
29733;BME280;16643;43.158;25.302;2023-02-03T01:20:09;98255.78;;;3.23;86.71
29733;BME280;16643;43.158;25.302;2023-02-03T01:22:38;98249.78;;;3.23;86.44
29733;BME280;16643;43.158;25.302;2023-02-03T01:25:04;98253.22;;;3.20;86.88
29733;BME280;16643;43.158;25.302;2023-02-03T01:27:31;98254.91;;;3.18;87.19
29733;BME280;16643;43.158;25.302;2023-02-03T01:29:57;98261.75;;;3.16;87.54
29733;BME280;16643;43.158;25.302;2023-02-03T01:32:22;98263.47;;;3.14;87.81
29733;BME280;16643;43.158;25.302;2023-02-03T01:34:47;98264.31;;;3.16;87.38
29733;BME280;16643;43.158;25.302;2023-02-03T01:37:13;98278.03;;;3.15;88.27
29733;BME280;16643;43.158;25.302;2023-02-03T01:39:41;98260.06;;;3.15;88.19
29733;BME280;16643;43.158;25.302;2023-02-03T01:42:07;98269.44;;;3.16;88.07
29733;BME280;16643;43.158;25.302;2023-02-03T01:49:39;98263.47;;;3.19;87.95
29733;BME280;16643;43.158;25.302;2023-02-03T01:52:07;98266.03;;;3.19;87.87
29733;BME280;16643;43.158;25.302;2023-02-03T01:54:34;98259.22;;;3.15;88.80
29733;BME280;16643;43.158;25.302;2023-02-03T01:57:23;98261.75;;;3.19;88.42
29733;BME280;16643;43.158;25.302;2023-02-03T01:59:47;98259.19;;;3.18;88.15
29733;BME280;16643;43.158;25.302;2023-02-03T02:02:13;98245.50;;;3.17;88.79
29733;BME280;16643;43.158;25.302;2023-02-03T02:04:49;98248.94;;;3.13;88.58
29733;BME280;16643;43.158;25.302;2023-02-03T02:07:16;98248.94;;;3.13;88.66
29733;BME280;16643;43.158;25.302;2023-02-03T02:09:42;98241.22;;;3.15;88.57
29733;BME280;16643;43.158;25.302;2023-02-03T02:12:09;98245.50;;;3.10;88.70
29733;BME280;16643;43.158;25.302;2023-02-03T02:14:34;98241.22;;;3.09;88.53
29733;BME280;16643;43.158;25.302;2023-02-03T02:17:10;98241.19;;;3.07;88.06
29733;BME280;16643;43.158;25.302;2023-02-03T02:22:12;98243.75;;;3.06;88.65
29733;BME280;16643;43.158;25.302;2023-02-03T02:24:49;98235.19;;;3.05;88.10
29733;BME280;16643;43.158;25.302;2023-02-03T02:30:09;98250.63;;;3.02;88.73
29733;BME280;16643;43.158;25.302;2023-02-03T02:32:57;98246.34;;;3.01;89.59
29733;BME280;16643;43.158;25.302;2023-02-03T02:35:43;98251.47;;;3.01;89.12
29733;BME280;16643;43.158;25.302;2023-02-03T02:45:59;98266.84;;;2.97;90.74
29733;BME280;16643;43.158;25.302;2023-02-03T02:48:31;98274.56;;;2.92;90.79
29733;BME280;16643;43.158;25.302;2023-02-03T02:50:59;98267.72;;;2.91;91.23
29733;BME280;16643;43.158;25.302;2023-02-03T02:53:28;98267.69;;;2.89;91.18
29733;BME280;16643;43.158;25.302;2023-02-03T02:55:56;98266.00;;;2.90;91.74
29733;BME280;16643;43.158;25.302;2023-02-03T02:58:23;98271.97;;;2.93;92.11
29733;BME280;16643;43.158;25.302;2023-02-03T03:00:50;98263.44;;;2.93;91.62
29733;BME280;16643;43.158;25.302;2023-02-03T03:03:19;98265.13;;;2.89;91.78
29733;BME280;16643;43.158;25.302;2023-02-03T03:05:47;98277.09;;;2.93;91.84
29733;BME280;16643;43.158;25.302;2023-02-03T03:08:13;98269.41;;;2.90;92.57
29733;BME280;16643;43.158;25.302;2023-02-03T03:10:40;98271.13;;;2.91;92.24
29733;BME280;16643;43.158;25.302;2023-02-03T03:13:08;98273.69;;;2.88;92.77
29733;BME280;16643;43.158;25.302;2023-02-03T03:15:35;98272.81;;;2.88;92.98
29733;BME280;16643;43.158;25.302;2023-02-03T03:18:04;98268.53;;;2.87;93.07
29733;BME280;16643;43.158;25.302;2023-02-03T03:20:30;98266.81;;;2.86;93.27
29733;BME280;16643;43.158;25.302;2023-02-03T03:23:02;98276.22;;;2.85;93.29
29733;BME280;16643;43.158;25.302;2023-02-03T03:25:40;98279.66;;;2.84;93.35
29733;BME280;16643;43.158;25.302;2023-02-03T03:28:10;98273.66;;;2.84;93.84
29733;BME280;16643;43.158;25.302;2023-02-03T03:30:37;98269.41;;;2.81;94.23
29733;BME280;16643;43.158;25.302;2023-02-03T03:33:03;98270.22;;;2.83;94.29
29733;BME280;16643;43.158;25.302;2023-02-03T03:35:52;98273.66;;;2.82;94.18
29733;BME280;16643;43.158;25.302;2023-02-03T03:38:20;98270.25;;;2.82;94.17
29733;BME280;16643;43.158;25.302;2023-02-03T03:40:49;98302.75;;;2.81;94.19
29733;BME280;16643;43.158;25.302;2023-02-03T03:43:17;98282.22;;;2.84;93.96
29733;BME280;16643;43.158;25.302;2023-02-03T03:48:16;98300.19;;;2.84;94.21
29733;BME280;16643;43.158;25.302;2023-02-03T03:50:48;98304.44;;;2.84;94.28
29733;BME280;16643;43.158;25.302;2023-02-03T03:53:16;98319.84;;;2.84;94.43
29733;BME280;16643;43.158;25.302;2023-02-03T03:55:43;98326.72;;;2.86;94.48
29733;BME280;16643;43.158;25.302;2023-02-03T03:58:12;98333.56;;;2.87;95.05
29733;BME280;16643;43.158;25.302;2023-02-03T04:00:40;98331.88;;;2.89;94.81
29733;BME280;16643;43.158;25.302;2023-02-03T04:03:16;98341.28;;;2.89;95.16
29733;BME280;16643;43.158;25.302;2023-02-03T04:05:43;98342.13;;;2.91;95.76
29733;BME280;16643;43.158;25.302;2023-02-03T04:08:08;98344.69;;;2.91;95.87
29733;BME280;16643;43.158;25.302;2023-02-03T04:10:35;98343.84;;;2.90;95.58
29733;BME280;16643;43.158;25.302;2023-02-03T04:13:00;98345.56;;;2.90;95.90
29733;BME280;16643;43.158;25.302;2023-02-03T04:15:26;98348.13;;;2.91;95.88
29733;BME280;16643;43.158;25.302;2023-02-03T04:17:52;98349.00;;;2.92;96.17
29733;BME280;16643;43.158;25.302;2023-02-03T04:20:19;98357.53;;;2.89;96.62
29733;BME280;16643;43.158;25.302;2023-02-03T04:22:44;98351.53;;;2.90;96.31
29733;BME280;16643;43.158;25.302;2023-02-03T04:25:10;98356.69;;;2.92;97.13
29733;BME280;16643;43.158;25.302;2023-02-03T04:27:35;98364.38;;;2.90;96.99
29733;BME280;16643;43.158;25.302;2023-02-03T04:30:01;98372.06;;;2.90;97.34
29733;BME280;16643;43.158;25.302;2023-02-03T04:32:26;98365.22;;;2.89;97.80
29733;BME280;16643;43.158;25.302;2023-02-03T04:34:51;98363.53;;;2.91;98.01
29733;BME280;16643;43.158;25.302;2023-02-03T04:37:17;98359.22;;;2.87;98.42
29733;BME280;16643;43.158;25.302;2023-02-03T04:39:43;98374.63;;;2.89;98.89
29733;BME280;16643;43.158;25.302;2023-02-03T04:42:08;98357.50;;;2.88;99.07
29733;BME280;16643;43.158;25.302;2023-02-03T04:44:33;98360.91;;;2.85;99.08
29733;BME280;16643;43.158;25.302;2023-02-03T04:46:59;98370.34;;;2.86;99.48
29733;BME280;16643;43.158;25.302;2023-02-03T04:49:25;98369.47;;;2.86;98.98
29733;BME280;16643;43.158;25.302;2023-02-03T04:51:50;98383.16;;;2.86;99.10
29733;BME280;16643;43.158;25.302;2023-02-03T04:54:16;98386.56;;;2.84;99.85
29733;BME280;16643;43.158;25.302;2023-02-03T04:56:41;98377.19;;;2.81;100.00
29733;BME280;16643;43.158;25.302;2023-02-03T04:59:07;98387.41;;;2.83;100.00
29733;BME280;16643;43.158;25.302;2023-02-03T05:01:32;98399.41;;;2.79;100.00
29733;BME280;16643;43.158;25.302;2023-02-03T05:03:58;98389.16;;;2.81;100.00
29733;BME280;16643;43.158;25.302;2023-02-03T05:06:24;98394.28;;;2.81;100.00
29733;BME280;16643;43.158;25.302;2023-02-03T05:08:50;98406.25;;;2.83;100.00
29733;BME280;16643;43.158;25.302;2023-02-03T05:11:16;98400.25;;;2.83;100.00
29733;BME280;16643;43.158;25.302;2023-02-03T05:13:41;98407.09;;;2.82;100.00
29733;BME280;16643;43.158;25.302;2023-02-03T05:16:07;98411.41;;;2.82;100.00
29733;BME280;16643;43.158;25.302;2023-02-03T05:18:32;98401.13;;;2.80;100.00
29733;BME280;16643;43.158;25.302;2023-02-03T05:20:58;98394.25;;;2.79;100.00
29733;BME280;16643;43.158;25.302;2023-02-03T05:23:23;98408.81;;;2.79;100.00
29733;BME280;16643;43.158;25.302;2023-02-03T05:25:49;98404.50;;;2.76;100.00
29733;BME280;16643;43.158;25.302;2023-02-03T05:28:14;98413.91;;;2.77;99.99
29733;BME280;16643;43.158;25.302;2023-02-03T05:30:40;98407.94;;;2.78;100.00
29733;BME280;16643;43.158;25.302;2023-02-03T05:33:05;98407.06;;;2.75;100.00
29733;BME280;16643;43.158;25.302;2023-02-03T05:35:31;98415.63;;;2.78;100.00
29733;BME280;16643;43.158;25.302;2023-02-03T05:37:56;98433.59;;;2.77;100.00
29733;BME280;16643;43.158;25.302;2023-02-03T05:40:23;98434.44;;;2.74;100.00
29733;BME280;16643;43.158;25.302;2023-02-03T05:43:07;98442.97;;;2.73;100.00
29733;BME280;16643;43.158;25.302;2023-02-03T05:45:33;98439.59;;;2.77;100.00
29733;BME280;16643;43.158;25.302;2023-02-03T05:47:58;98444.72;;;2.77;100.00
29733;BME280;16643;43.158;25.302;2023-02-03T05:50:26;98445.56;;;2.76;100.00
29733;BME280;16643;43.158;25.302;2023-02-03T05:52:54;98454.16;;;2.80;100.00
29733;BME280;16643;43.158;25.302;2023-02-03T05:55:20;98458.38;;;2.75;100.00
29733;BME280;16643;43.158;25.302;2023-02-03T05:57:45;98449.81;;;2.73;100.00
29733;BME280;16643;43.158;25.302;2023-02-03T06:00:10;98455.81;;;2.76;100.00
29733;BME280;16643;43.158;25.302;2023-02-03T06:02:36;98465.22;;;2.76;100.00
29733;BME280;16643;43.158;25.302;2023-02-03T06:05:02;98478.06;;;2.77;100.00
29733;BME280;16643;43.158;25.302;2023-02-03T06:07:27;98470.38;;;2.77;100.00
29733;BME280;16643;43.158;25.302;2023-02-03T06:09:52;98469.50;;;2.77;100.00
29733;BME280;16643;43.158;25.302;2023-02-03T06:12:18;98477.22;;;2.78;100.00
29733;BME280;16643;43.158;25.302;2023-02-03T06:14:43;98477.22;;;2.77;100.00
29733;BME280;16643;43.158;25.302;2023-02-03T06:17:09;98493.44;;;2.73;100.00
29733;BME280;16643;43.158;25.302;2023-02-03T06:19:34;98492.59;;;2.75;100.00
29733;BME280;16643;43.158;25.302;2023-02-03T06:22:03;98478.88;;;2.72;100.00
29733;BME280;16643;43.158;25.302;2023-02-03T06:24:28;98494.28;;;2.73;100.00
29733;BME280;16643;43.158;25.302;2023-02-03T06:26:53;98496.91;;;2.78;100.00
29733;BME280;16643;43.158;25.302;2023-02-03T06:29:19;98500.31;;;2.77;100.00
29733;BME280;16643;43.158;25.302;2023-02-03T06:31:44;98502.03;;;2.78;100.00
29733;BME280;16643;43.158;25.302;2023-02-03T06:34:10;98507.16;;;2.79;100.00
29733;BME280;16643;43.158;25.302;2023-02-03T06:36:35;98519.16;;;2.79;100.00
29733;BME280;16643;43.158;25.302;2023-02-03T06:39:00;98516.59;;;2.80;100.00
29733;BME280;16643;43.158;25.302;2023-02-03T06:41:26;98508.06;;;2.81;100.00
29733;BME280;16643;43.158;25.302;2023-02-03T06:43:54;98534.53;;;2.77;100.00
29733;BME280;16643;43.158;25.302;2023-02-03T06:46:20;98523.41;;;2.77;100.00
29733;BME280;16643;43.158;25.302;2023-02-03T06:48:45;98528.53;;;2.78;100.00
29733;BME280;16643;43.158;25.302;2023-02-03T06:51:11;98530.28;;;2.79;100.00
29733;BME280;16643;43.158;25.302;2023-02-03T06:53:36;98528.53;;;2.78;100.00
29733;BME280;16643;43.158;25.302;2023-02-03T06:56:01;98532.00;;;2.80;100.00
29733;BME280;16643;43.158;25.302;2023-02-03T06:58:27;98532.84;;;2.84;100.00
29733;BME280;16643;43.158;25.302;2023-02-03T07:00:56;98534.63;;;2.89;100.00
29733;BME280;16643;43.158;25.302;2023-02-03T07:03:21;98543.22;;;2.96;100.00
29733;BME280;16643;43.158;25.302;2023-02-03T07:05:47;98530.38;;;2.96;100.00
29733;BME280;16643;43.158;25.302;2023-02-03T07:08:12;98527.84;;;3.01;100.00
29733;BME280;16643;43.158;25.302;2023-02-03T07:10:37;98544.97;;;3.00;99.17
29733;BME280;16643;43.158;25.302;2023-02-03T07:13:04;98528.75;;;3.04;98.88
29733;BME280;16643;43.158;25.302;2023-02-03T07:15:29;98531.31;;;3.09;98.66
29733;BME280;16643;43.158;25.302;2023-02-03T07:17:54;98535.59;;;3.10;98.57
29733;BME280;16643;43.158;25.302;2023-02-03T07:20:21;98540.75;;;3.10;97.84
29733;BME280;16643;43.158;25.302;2023-02-03T07:22:50;98549.28;;;3.09;98.27
29733;BME280;16643;43.158;25.302;2023-02-03T07:25:16;98536.44;;;3.09;98.54
29733;BME280;16643;43.158;25.302;2023-02-03T07:27:41;98544.19;;;3.13;98.22
29733;BME280;16643;43.158;25.302;2023-02-03T07:30:07;98543.34;;;3.14;97.00
29733;BME280;16643;43.158;25.302;2023-02-03T07:32:33;98544.19;;;3.12;97.81
29733;BME280;16643;43.158;25.302;2023-02-03T07:34:58;98547.59;;;3.12;97.96
29733;BME280;16643;43.158;25.302;2023-02-03T07:37:25;98539.06;;;3.13;97.86
29733;BME280;16643;43.158;25.302;2023-02-03T07:39:51;98561.34;;;3.16;97.69
29733;BME280;16643;43.158;25.302;2023-02-03T07:42:16;98554.47;;;3.18;97.37
29733;BME280;16643;43.158;25.302;2023-02-03T07:44:41;98552.75;;;3.18;97.32
29733;BME280;16643;43.158;25.302;2023-02-03T07:47:07;98556.19;;;3.19;96.59
29733;BME280;16643;43.158;25.302;2023-02-03T07:49:32;98550.22;;;3.21;96.88
29733;BME280;16643;43.158;25.302;2023-02-03T07:51:58;98553.69;;;3.28;96.94
29733;BME280;16643;43.158;25.302;2023-02-03T07:54:23;98553.69;;;3.28;96.86
29733;BME280;16643;43.158;25.302;2023-02-03T07:56:49;98558.03;;;3.38;98.06
29733;BME280;16643;43.158;25.302;2023-02-03T07:59:15;98551.22;;;3.46;96.60
29733;BME280;16643;43.158;25.302;2023-02-03T08:01:40;98564.06;;;3.51;95.77
29733;BME280;16643;43.158;25.302;2023-02-03T08:04:06;98568.38;;;3.49;95.38
29733;BME280;16643;43.158;25.302;2023-02-03T08:06:32;98569.22;;;3.51;95.75
29733;BME280;16643;43.158;25.302;2023-02-03T08:08:58;98572.66;;;3.51;94.94
29733;BME280;16643;43.158;25.302;2023-02-03T08:11:24;98576.13;;;3.58;95.68
29733;BME280;16643;43.158;25.302;2023-02-03T08:13:49;98582.97;;;3.59;95.39
29733;BME280;16643;43.158;25.302;2023-02-03T08:16:15;98572.72;;;3.63;95.64
29733;BME280;16643;43.158;25.302;2023-02-03T08:18:40;98579.59;;;3.66;95.27
29733;BME280;16643;43.158;25.302;2023-02-03T08:21:06;98583.03;;;3.70;94.63
29733;BME280;16643;43.158;25.302;2023-02-03T08:23:31;98606.22;;;3.82;95.23
29733;BME280;16643;43.158;25.302;2023-02-03T08:25:57;98585.69;;;3.91;95.49
29733;BME280;16643;43.158;25.302;2023-02-03T08:28:22;98596.84;;;3.99;95.14
29733;BME280;16643;43.158;25.302;2023-02-03T08:30:47;98602.88;;;4.07;94.15
29733;BME280;16643;43.158;25.302;2023-02-03T08:33:13;98611.47;;;4.11;93.93
29733;BME280;16643;43.158;25.302;2023-02-03T08:35:39;98612.31;;;4.10;92.32
29733;BME280;16643;43.158;25.302;2023-02-03T08:38:04;98610.63;;;4.10;94.11
29733;BME280;16643;43.158;25.302;2023-02-03T08:40:30;98611.50;;;4.18;93.81
29733;BME280;16643;43.158;25.302;2023-02-03T08:42:55;98617.50;;;4.19;92.94
29733;BME280;16643;43.158;25.302;2023-02-03T08:45:21;98616.69;;;4.27;93.10
29733;BME280;16643;43.158;25.302;2023-02-03T08:47:46;98610.66;;;4.24;91.91
29733;BME280;16643;43.158;25.302;2023-02-03T08:50:12;98605.47;;;4.18;92.76
29733;BME280;16643;43.158;25.302;2023-02-03T08:52:38;98594.38;;;4.16;93.61
29733;BME280;16643;43.158;25.302;2023-02-03T08:55:03;98599.53;;;4.31;92.38
29733;BME280;16643;43.158;25.302;2023-02-03T08:57:32;98607.31;;;4.51;92.29
29733;BME280;16643;43.158;25.302;2023-02-03T08:59:58;98615.91;;;4.69;92.47
29733;BME280;16643;43.158;25.302;2023-02-03T09:02:24;98613.34;;;4.98;92.30
29733;BME280;16643;43.158;25.302;2023-02-03T09:04:49;98605.59;;;5.20;88.93
29733;BME280;16643;43.158;25.302;2023-02-03T09:07:16;98606.47;;;5.25;88.20
29733;BME280;16643;43.158;25.302;2023-02-03T09:09:41;98610.78;;;5.17;88.65
29733;BME280;16643;43.158;25.302;2023-02-03T09:12:07;98603.94;;;4.96;87.91
29733;BME280;16643;43.158;25.302;2023-02-03T09:14:33;98600.50;;;4.85;89.04
29733;BME280;16643;43.158;25.302;2023-02-03T09:17:02;98597.91;;;4.79;89.24
29733;BME280;16643;43.158;25.302;2023-02-03T09:19:28;98598.75;;;4.71;90.28
29733;BME280;16643;43.158;25.302;2023-02-03T09:21:54;98608.22;;;4.82;90.97
29733;BME280;16643;43.158;25.302;2023-02-03T09:24:21;98606.50;;;4.82;89.75
29733;BME280;16643;43.158;25.302;2023-02-03T09:26:47;98605.63;;;4.77;90.86
29733;BME280;16643;43.158;25.302;2023-02-03T09:29:12;98608.19;;;4.68;90.98
29733;BME280;16643;43.158;25.302;2023-02-03T09:31:38;98603.03;;;4.65;90.76
29733;BME280;16643;43.158;25.302;2023-02-03T09:34:03;98613.34;;;4.62;91.06
29733;BME280;16643;43.158;25.302;2023-02-03T09:36:29;98611.63;;;4.61;90.83
29733;BME280;16643;43.158;25.302;2023-02-03T09:38:55;98621.06;;;4.68;91.56
29733;BME280;16643;43.158;25.302;2023-02-03T09:44:41;98609.06;;;4.78;90.85
29733;BME280;16643;43.158;25.302;2023-02-03T09:47:17;98608.19;;;4.80;89.84
29733;BME280;16643;43.158;25.302;2023-02-03T09:49:46;98615.91;;;4.86;91.58
29733;BME280;16643;43.158;25.302;2023-02-03T09:57:29;98610.78;;;4.97;90.25
29733;BME280;16643;43.158;25.302;2023-02-03T09:59:53;98607.34;;;4.92;88.79
29733;BME280;16643;43.158;25.302;2023-02-03T10:07:28;98609.94;;;4.95;88.88
29733;BME280;16643;43.158;25.302;2023-02-03T10:09:59;98603.91;;;4.99;89.66
29733;BME280;16643;43.158;25.302;2023-02-03T10:12:35;98606.50;;;4.94;88.81
29733;BME280;16643;43.158;25.302;2023-02-03T10:17:47;98601.34;;;4.91;89.17
29733;BME280;16643;43.158;25.302;2023-02-03T10:20:18;98603.91;;;4.97;89.67
29733;BME280;16643;43.158;25.302;2023-02-03T10:22:53;98603.91;;;5.00;89.57
29733;BME280;16643;43.158;25.302;2023-02-03T10:27:54;98590.16;;;5.14;88.16
29733;BME280;16643;43.158;25.302;2023-02-03T10:30:21;98597.91;;;5.12;87.20
29733;BME280;16643;43.158;25.302;2023-02-03T10:32:53;98591.03;;;5.05;87.15
29733;BME280;16643;43.158;25.302;2023-02-03T10:35:20;98590.19;;;5.06;86.63
29733;BME280;16643;43.158;25.302;2023-02-03T10:37:50;98580.72;;;5.14;87.82
29733;BME280;16643;43.158;25.302;2023-02-03T10:40:20;98578.16;;;5.19;87.66
29733;BME280;16643;43.158;25.302;2023-02-03T10:42:48;98570.41;;;5.20;86.62
29733;BME280;16643;43.158;25.302;2023-02-03T10:45:33;98572.13;;;5.27;85.54
29733;BME280;16643;43.158;25.302;2023-02-03T10:48:00;98567.81;;;5.40;86.05
29733;BME280;16643;43.158;25.302;2023-02-03T10:50:27;98559.09;;;5.76;85.71
29733;BME280;16643;43.158;25.302;2023-02-03T10:53:40;98568.34;;;6.24;85.22
29733;BME280;16643;43.158;25.302;2023-02-03T10:55:41;98570.00;;;6.40;82.43
29733;BME280;16643;43.158;25.302;2023-02-03T10:58:09;98563.25;;;6.18;80.22
29733;BME280;16643;43.158;25.302;2023-02-03T11:00:38;98564.97;;;6.14;80.41
29733;BME280;16643;43.158;25.302;2023-02-03T11:03:07;98561.47;;;6.25;81.86
29733;BME280;16643;43.158;25.302;2023-02-03T11:05:40;98563.94;;;6.44;80.62
29733;BME280;16643;43.158;25.302;2023-02-03T11:08:13;98562.25;;;6.42;79.41
29733;BME280;16643;43.158;25.302;2023-02-03T11:10:39;98548.25;;;6.70;80.36
29733;BME280;16643;43.158;25.302;2023-02-03T11:13:23;98553.13;;;7.07;80.06
29733;BME280;16643;43.158;25.302;2023-02-03T11:15:56;98549.34;;;7.40;75.08
29733;BME280;16643;43.158;25.302;2023-02-03T11:18:35;98547.94;;;7.10;75.72
29733;BME280;16643;43.158;25.302;2023-02-03T11:21:21;98545.47;;;6.99;76.35
29733;BME280;16643;43.158;25.302;2023-02-03T11:24:10;98541.38;;;6.71;74.36
29733;BME280;16643;43.158;25.302;2023-02-03T11:26:39;98539.66;;;6.68;75.77
29733;BME280;16643;43.158;25.302;2023-02-03T11:29:05;98524.06;;;6.80;76.03
29733;BME280;16643;43.158;25.302;2023-02-03T11:31:39;98524.69;;;7.08;75.10
29733;BME280;16643;43.158;25.302;2023-02-03T11:34:14;98522.66;;;7.36;72.45
29733;BME280;16643;43.158;25.302;2023-02-03T11:36:40;98522.53;;;7.50;71.92
29733;BME280;16643;43.158;25.302;2023-02-03T11:39:09;98518.03;;;7.65;71.83
29733;BME280;16643;43.158;25.302;2023-02-03T11:41:37;98515.16;;;7.90;70.95
29733;BME280;16643;43.158;25.302;2023-02-03T11:44:10;98513.16;;;8.10;70.81
29733;BME280;16643;43.158;25.302;2023-02-03T11:46:36;98515.44;;;8.30;68.63
29733;BME280;16643;43.158;25.302;2023-02-03T11:49:04;98514.50;;;8.37;66.83
29733;BME280;16643;43.158;25.302;2023-02-03T11:51:55;98513.63;;;8.38;66.34
29733;BME280;16643;43.158;25.302;2023-02-03T12:05:03;98515.06;;;7.96;68.41
29733;BME280;16643;43.158;25.302;2023-02-03T12:10:27;98510.56;;;7.41;69.68
29733;BME280;16643;43.158;25.302;2023-02-03T12:15:50;98511.78;;;7.08;71.98
29733;BME280;16643;43.158;25.302;2023-02-03T12:26:13;98497.66;;;6.48;75.57
29733;BME280;16643;43.158;25.302;2023-02-03T12:34:16;98499.38;;;6.46;75.79
29733;BME280;16643;43.158;25.302;2023-02-03T12:36:39;98492.56;;;6.37;75.49
29733;BME280;16643;43.158;25.302;2023-02-03T12:41:34;98500.47;;;6.17;75.57
29733;BME280;16643;43.158;25.302;2023-02-03T12:52:08;98498.81;;;6.07;74.77
29733;BME280;16643;43.158;25.302;2023-02-03T12:54:54;98502.25;;;6.06;75.95
29733;BME280;16643;43.158;25.302;2023-02-03T12:57:24;98496.19;;;6.12;75.72
29733;BME280;16643;43.158;25.302;2023-02-03T13:00:08;98495.31;;;6.16;75.63
29733;BME280;16643;43.158;25.302;2023-02-03T13:02:42;98494.44;;;6.17;75.00
29733;BME280;16643;43.158;25.302;2023-02-03T13:05:32;98490.16;;;6.10;74.74
29733;BME280;16643;43.158;25.302;2023-02-03T13:08:11;98496.22;;;6.07;74.08
29733;BME280;16643;43.158;25.302;2023-02-03T13:10:44;98502.25;;;6.00;72.41
29733;BME280;16643;43.158;25.302;2023-02-03T13:13:13;98503.19;;;5.90;72.84
29733;BME280;16643;43.158;25.302;2023-02-03T13:15:43;98500.63;;;5.76;73.47
29733;BME280;16643;43.158;25.302;2023-02-03T13:20:39;98511.00;;;5.72;72.05
29733;BME280;16643;43.158;25.302;2023-02-03T13:23:06;98492.94;;;5.66;72.35
29733;BME280;16643;43.158;25.302;2023-02-03T13:33:35;98485.25;;;5.60;74.37
29733;BME280;16643;43.158;25.302;2023-02-03T13:41:21;98485.25;;;5.54;72.65
29733;BME280;16643;43.158;25.302;2023-02-03T13:43:52;98481.00;;;5.50;72.73
29733;BME280;16643;43.158;25.302;2023-02-03T13:46:40;98474.09;;;5.53;72.68
29733;BME280;16643;43.158;25.302;2023-02-03T13:49:04;98470.69;;;5.51;73.32
29733;BME280;16643;43.158;25.302;2023-02-03T13:51:32;98473.28;;;5.48;75.13
29733;BME280;16643;43.158;25.302;2023-02-03T13:54:00;98458.66;;;5.47;73.11
29733;BME280;16643;43.158;25.302;2023-02-03T13:56:27;98466.34;;;5.56;74.80
29733;BME280;16643;43.158;25.302;2023-02-03T14:01:37;98466.25;;;5.77;73.53
29733;BME280;16643;43.158;25.302;2023-02-03T14:04:05;98461.06;;;5.87;72.17
29733;BME280;16643;43.158;25.302;2023-02-03T14:09:17;98460.19;;;5.92;69.42
29733;BME280;16643;43.158;25.302;2023-02-03T14:11:44;98462.78;;;5.89;69.29
29733;BME280;16643;43.158;25.302;2023-02-03T14:19:00;98464.63;;;5.58;69.99
29733;BME280;16643;43.158;25.302;2023-02-03T14:21:26;98460.34;;;5.54;70.82
29733;BME280;16643;43.158;25.302;2023-02-03T14:23:57;98463.78;;;5.55;70.98
29733;BME280;16643;43.158;25.302;2023-02-03T14:26:33;98463.81;;;5.44;70.94
29733;BME280;16643;43.158;25.302;2023-02-03T14:29:00;98451.84;;;5.40;71.96
29733;BME280;16643;43.158;25.302;2023-02-03T14:31:26;98457.00;;;5.40;70.53
29733;BME280;16643;43.158;25.302;2023-02-03T14:33:53;98465.53;;;5.51;70.23
29733;BME280;16643;43.158;25.302;2023-02-03T14:41:56;98468.19;;;5.22;69.76
29733;BME280;16643;43.158;25.302;2023-02-03T14:46:55;98482.00;;;5.04;69.66
29733;BME280;16643;43.158;25.302;2023-02-03T14:52:03;98472.56;;;4.97;69.21
29733;BME280;16643;43.158;25.302;2023-02-03T14:54:40;98482.88;;;4.88;68.42
29733;BME280;16643;43.158;25.302;2023-02-03T15:02:13;98470.91;;;4.66;69.65